Time;durP1;ratioP1;P1;durP2;ratioP2;P2;SDS_P1;SDS_P2;PMS_P1;PMS_P2;Temp;Humidity;BMP_temperature;BMP_pressure;BME280_temperature;BME280_humidity;BME280_pressure;Samples;Min_cycle;Max_cycle;Signal;HPM_P1;HPM_P2
2023/11/27 00:02:23;;;;;;;14.60;4.75;;;9.90;99.90;;;;;;5051389;28;20025;-77
2023/11/27 00:04:49;;;;;;;9.68;3.88;;;9.90;99.90;;;;;;5050403;28;20037;-77
2023/11/27 00:07:15;;;;;;;14.50;3.97;;;9.90;99.90;;;;;;5051535;28;20035;-78
2023/11/27 00:09:40;;;;;;;16.08;4.53;;;9.90;99.90;;;;;;5034222;28;20021;-78
2023/11/27 00:12:07;;;;;;;12.07;3.90;;;9.90;99.90;;;;;;5050636;28;20021;-78
2023/11/27 00:14:33;;;;;;;7.18;3.85;;;9.90;99.90;;;;;;5050506;28;20125;-78
2023/11/27 00:16:58;;;;;;;8.77;3.58;;;9.90;99.90;;;;;;5050357;28;20037;-78
2023/11/27 00:19:24;;;;;;;12.95;4.15;;;9.90;99.90;;;;;;5050571;28;20152;-78
2023/11/27 00:21:50;;;;;;;9.50;3.60;;;9.90;99.90;;;;;;5051507;28;20044;-78
2023/11/27 00:24:15;;;;;;;9.50;3.80;;;9.90;99.90;;;;;;5050447;28;20060;-77
2023/11/27 00:26:41;;;;;;;7.15;2.95;;;9.90;99.90;;;;;;5033786;28;20049;-78
2023/11/27 00:29:07;;;;;;;6.20;3.00;;;9.90;99.90;;;;;;5033965;28;20040;-78
2023/11/27 00:31:33;;;;;;;8.18;3.08;;;9.90;99.90;;;;;;5051348;28;20025;-78
2023/11/27 00:33:59;;;;;;;10.55;3.28;;;9.90;99.90;;;;;;5051407;28;20322;-78
2023/11/27 00:36:25;;;;;;;8.32;3.30;;;9.90;99.90;;;;;;5050181;28;20293;-78
2023/11/27 00:38:51;;;;;;;8.07;2.60;;;9.80;99.90;;;;;;5033895;28;20017;-78
2023/11/27 00:41:17;;;;;;;10.07;3.28;;;9.80;99.90;;;;;;5033841;28;20221;-78
2023/11/27 00:43:45;;;;;;;9.35;3.30;;;9.80;99.90;;;;;;5050284;28;20052;-78
2023/11/27 00:46:12;;;;;;;10.02;3.30;;;9.80;99.90;;;;;;5051216;28;20033;-78
2023/11/27 00:48:37;;;;;;;11.57;3.58;;;9.80;99.90;;;;;;5017105;28;20104;-77
2023/11/27 00:51:04;;;;;;;10.45;3.92;;;9.80;99.90;;;;;;5030957;28;20033;-78
2023/11/27 00:53:30;;;;;;;7.80;3.20;;;9.80;99.90;;;;;;5046854;28;20025;-78
2023/11/27 00:55:55;;;;;;;11.25;3.15;;;9.80;99.90;;;;;;5046918;28;20282;-78
2023/11/27 00:58:21;;;;;;;8.73;2.97;;;9.70;99.90;;;;;;5030414;28;20287;-77
2023/11/27 01:00:47;;;;;;;5.47;2.45;;;9.70;99.90;;;;;;5030365;28;20029;-78
2023/11/27 01:03:12;;;;;;;6.95;2.40;;;9.70;99.90;;;;;;5046909;28;20053;-78
2023/11/27 01:05:38;;;;;;;8.05;2.75;;;9.70;99.90;;;;;;5047946;28;20059;-78
2023/11/27 01:08:04;;;;;;;7.93;2.88;;;9.80;99.90;;;;;;5046813;28;20033;-78
2023/11/27 01:10:31;;;;;;;6.45;3.33;;;9.80;99.90;;;;;;5030239;28;20042;-78
2023/11/27 01:12:57;;;;;;;8.57;3.10;;;9.80;99.90;;;;;;5030253;28;20037;-78
2023/11/27 01:15:23;;;;;;;6.10;2.65;;;9.80;99.90;;;;;;5047666;28;20048;-78
2023/11/27 01:17:49;;;;;;;6.25;2.63;;;9.80;99.90;;;;;;5046766;28;20088;-78
2023/11/27 01:20:14;;;;;;;4.43;2.10;;;9.80;99.90;;;;;;5046713;28;20037;-78
2023/11/27 01:22:40;;;;;;;5.20;2.10;;;9.70;99.90;;;;;;5030047;28;20021;-78
2023/11/27 01:25:06;;;;;;;9.77;2.05;;;9.70;99.90;;;;;;5046378;28;20186;-77
2023/11/27 01:27:32;;;;;;;5.93;1.88;;;9.70;99.90;;;;;;5029947;28;20322;-77
2023/11/27 01:29:58;;;;;;;5.10;1.77;;;9.70;99.90;;;;;;5046185;28;20033;-77
2023/11/27 01:32:27;;;;;;;3.38;1.70;;;9.70;99.90;;;;;;5029664;28;20032;-77
2023/11/27 01:34:52;;;;;;;3.65;1.77;;;9.70;99.90;;;;;;5046352;28;20036;-77
2023/11/27 01:37:18;;;;;;;6.22;1.80;;;9.70;99.90;;;;;;5029618;28;20034;-77
2023/11/27 01:39:44;;;;;;;3.63;1.50;;;9.70;99.90;;;;;;5047275;28;20021;-77
2023/11/27 01:42:10;;;;;;;6.70;2.90;;;9.70;99.90;;;;;;5046126;28;20063;-77
2023/11/27 01:44:38;;;;;;;10.45;2.85;;;9.70;99.90;;;;;;5046931;28;20045;-77
2023/11/27 01:47:04;;;;;;;4.57;2.45;;;9.70;99.90;;;;;;5046603;28;20024;-77
2023/11/27 01:49:33;;;;;;;6.30;2.30;;;9.70;99.90;;;;;;5046626;28;20117;-77
2023/11/27 01:51:59;;;;;;;6.53;3.20;;;9.70;99.90;;;;;;5029502;28;20096;-77
2023/11/27 01:54:28;;;;;;;10.00;2.20;;;9.70;99.90;;;;;;5046647;28;20125;-77
2023/11/27 01:56:54;;;;;;;5.10;2.40;;;9.70;99.90;;;;;;5045866;28;20025;-77
2023/11/27 01:59:20;;;;;;;4.13;2.00;;;9.60;99.90;;;;;;5029317;28;20044;-78
2023/11/27 02:01:45;;;;;;;5.68;2.00;;;9.60;99.90;;;;;;5045052;28;20037;-78
2023/11/27 02:04:11;;;;;;;7.95;2.22;;;9.70;99.90;;;;;;5046268;28;20029;-76
2023/11/27 02:06:37;;;;;;;6.40;2.65;;;9.60;99.90;;;;;;5046862;28;20029;-76
2023/11/27 02:09:02;;;;;;;6.57;2.33;;;9.70;99.90;;;;;;5012761;28;20017;-77
2023/11/27 02:11:29;;;;;;;7.70;2.70;;;9.70;99.90;;;;;;5045646;28;20025;-76
2023/11/27 02:13:55;;;;;;;6.05;2.60;;;9.70;99.90;;;;;;5045540;28;20088;-76
2023/11/27 02:16:21;;;;;;;5.35;2.83;;;9.70;99.90;;;;;;5045340;28;20032;-76
2023/11/27 02:18:47;;;;;;;8.07;3.00;;;9.70;99.90;;;;;;5045287;28;20279;-77
2023/11/27 02:21:12;;;;;;;6.70;3.08;;;9.70;99.90;;;;;;5046227;28;20048;-76
2023/11/27 02:23:38;;;;;;;10.40;4.22;;;9.60;99.90;;;;;;5045893;28;20218;-77
2023/11/27 02:26:04;;;;;;;8.50;3.60;;;9.60;99.90;;;;;;5045235;28;20190;-76
2023/11/27 02:28:30;;;;;;;8.75;3.75;;;9.60;99.90;;;;;;5046195;28;20029;-76
2023/11/27 02:30:56;;;;;;;9.27;4.30;;;9.60;99.90;;;;;;5028726;28;20104;-76
2023/11/27 02:33:25;;;;;;;8.75;4.45;;;9.60;99.90;;;;;;5045762;28;20329;-76
2023/11/27 02:35:51;;;;;;;11.38;4.47;;;9.60;99.90;;;;;;5013119;28;20060;-76
2023/11/27 02:38:16;;;;;;;9.38;4.50;;;9.60;99.90;;;;;;5045099;28;20067;-78
2023/11/27 02:40:42;;;;;;;7.13;4.15;;;9.60;99.90;;;;;;5044868;28;20033;-77
2023/11/27 02:43:09;;;;;;;8.05;4.25;;;9.60;99.90;;;;;;5044828;28;20030;-76
2023/11/27 02:45:35;;;;;;;6.55;3.63;;;9.70;99.90;;;;;;5045774;28;20187;-76
2023/11/27 02:48:01;;;;;;;8.35;4.72;;;9.70;99.90;;;;;;5044934;28;20025;-77
2023/11/27 02:50:27;;;;;;;8.40;4.22;;;9.70;99.90;;;;;;5011798;28;20270;-76
2023/11/27 02:52:52;;;;;;;5.53;3.92;;;9.70;99.90;;;;;;5045680;28;20017;-76
2023/11/27 02:55:19;;;;;;;9.55;3.83;;;9.70;99.90;;;;;;5044800;28;20029;-76
2023/11/27 02:57:46;;;;;;;7.60;4.35;;;9.70;99.90;;;;;;5028451;28;20025;-77
2023/11/27 03:00:12;;;;;;;9.32;3.90;;;9.70;99.90;;;;;;5044703;28;20032;-76
2023/11/27 03:02:42;;;;;;;7.93;3.88;;;9.70;99.90;;;;;;5044633;28;20295;-76
2023/11/27 03:05:08;;;;;;;7.82;4.55;;;9.70;99.90;;;;;;5045413;28;20147;-76
2023/11/27 03:07:37;;;;;;;7.15;3.92;;;9.70;99.90;;;;;;5028001;28;20021;-76
2023/11/27 03:10:04;;;;;;;8.55;4.00;;;9.70;99.90;;;;;;5045065;28;20231;-76
2023/11/27 03:12:30;;;;;;;7.10;4.13;;;9.70;99.90;;;;;;5044013;28;20148;-76
2023/11/27 03:14:55;;;;;;;9.70;4.80;;;9.70;99.90;;;;;;5043998;28;20025;-77
2023/11/27 03:17:22;;;;;;;8.65;4.30;;;9.70;99.90;;;;;;5028120;28;20088;-77
2023/11/27 03:19:48;;;;;;;11.38;4.82;;;9.70;99.90;;;;;;5044506;28;20056;-77
2023/11/27 03:22:13;;;;;;;8.48;4.38;;;9.70;99.90;;;;;;5044490;28;20279;-77
2023/11/27 03:24:39;;;;;;;8.82;4.53;;;9.70;99.90;;;;;;5044205;28;20040;-76
2023/11/27 03:27:05;;;;;;;12.32;5.10;;;9.60;99.90;;;;;;5027749;28;20035;-76
2023/11/27 03:29:31;;;;;;;8.68;5.20;;;9.60;99.90;;;;;;5044426;28;20041;-77
2023/11/27 03:31:57;;;;;;;11.05;4.93;;;9.60;99.90;;;;;;5028147;28;20064;-76
2023/11/27 03:34:23;;;;;;;14.88;5.85;;;9.50;99.90;;;;;;5027848;28;20034;-78
2023/11/27 03:36:48;;;;;;;12.10;5.60;;;9.60;99.90;;;;;;5044262;28;20022;-77
2023/11/27 03:39:14;;;;;;;10.93;5.47;;;9.60;99.90;;;;;;5044157;28;20096;-77
2023/11/27 03:41:40;;;;;;;11.02;5.28;;;9.70;99.90;;;;;;5045316;28;20029;-77
2023/11/27 03:44:08;;;;;;;10.02;5.22;;;9.70;99.90;;;;;;5044781;28;20021;-76
2023/11/27 03:46:34;;;;;;;13.07;5.18;;;9.70;99.90;;;;;;5044081;28;20033;-77
2023/11/27 03:49:00;;;;;;;9.20;4.40;;;9.70;99.90;;;;;;5044788;28;20049;-76
2023/11/27 03:51:25;;;;;;;8.80;4.32;;;9.80;99.90;;;;;;5045100;28;20033;-77
2023/11/27 03:53:51;;;;;;;10.43;4.28;;;9.70;99.90;;;;;;5044289;28;20056;-77
2023/11/27 03:56:17;;;;;;;8.07;4.47;;;9.70;99.90;;;;;;5028002;28;20037;-76
2023/11/27 03:58:43;;;;;;;9.13;4.63;;;9.70;99.90;;;;;;5044930;28;20041;-76
2023/11/27 04:01:08;;;;;;;11.20;4.55;;;9.70;99.90;;;;;;5043836;28;20037;-77
2023/11/27 04:03:39;;;;;;;11.10;4.63;;;9.70;99.90;;;;;;5044660;28;20049;-76
2023/11/27 04:06:07;;;;;;;8.75;4.63;;;9.70;99.90;;;;;;5044029;28;20236;-76
2023/11/27 04:08:33;;;;;;;10.93;5.07;;;9.70;99.90;;;;;;5043952;28;20045;-77
2023/11/27 04:10:59;;;;;;;10.90;4.72;;;9.70;99.90;;;;;;5044826;28;20030;-77
2023/11/27 04:13:24;;;;;;;9.85;4.50;;;9.70;99.90;;;;;;5043906;28;20287;-76
2023/11/27 04:15:50;;;;;;;11.48;4.57;;;9.70;99.90;;;;;;5027569;28;20291;-78
2023/11/27 04:18:16;;;;;;;9.98;4.40;;;9.70;99.90;;;;;;5044509;28;20123;-77
2023/11/27 04:20:42;;;;;;;11.43;4.53;;;9.60;99.90;;;;;;5044730;28;20278;-76
2023/11/27 04:23:10;;;;;;;9.80;3.90;;;9.60;99.90;;;;;;5044825;28;20266;-76
2023/11/27 04:25:36;;;;;;;4.85;2.20;;;9.70;99.90;;;;;;5030242;28;20295;-76
2023/11/27 04:28:01;;;;;;;4.45;2.17;;;9.60;99.90;;;;;;5014903;28;20027;-76
2023/11/27 04:30:27;;;;;;;4.20;1.95;;;9.50;99.90;;;;;;5031459;28;20072;-76
2023/11/27 04:32:53;;;;;;;3.97;1.90;;;9.50;99.90;;;;;;5049248;28;20033;-76
2023/11/27 04:35:19;;;;;;;4.25;1.63;;;9.50;99.90;;;;;;5031117;28;20056;-76
2023/11/27 04:37:44;;;;;;;6.53;2.03;;;9.40;99.90;;;;;;5047660;28;20035;-76
2023/11/27 04:40:14;;;;;;;4.45;1.80;;;9.50;99.90;;;;;;5047448;28;20191;-76
2023/11/27 04:42:40;;;;;;;2.45;1.17;;;9.50;99.90;;;;;;5047459;28;20051;-76
2023/11/27 04:45:09;;;;;;;4.85;1.40;;;9.40;99.90;;;;;;5048415;28;20311;-76
2023/11/27 04:47:35;;;;;;;4.70;1.52;;;9.50;99.90;;;;;;5047446;28;20035;-76
2023/11/27 04:50:01;;;;;;;3.20;1.20;;;9.50;99.90;;;;;;5047724;28;20108;-76
2023/11/27 04:52:27;;;;;;;3.50;1.20;;;9.50;99.90;;;;;;5047105;28;20033;-76
2023/11/27 04:54:52;;;;;;;2.78;1.17;;;9.50;99.90;;;;;;5047982;28;20168;-76
2023/11/27 04:57:21;;;;;;;2.72;1.20;;;9.50;99.90;;;;;;5048031;28;20029;-76
2023/11/27 04:59:47;;;;;;;3.22;1.40;;;9.60;99.90;;;;;;5046966;28;20021;-76
2023/11/27 05:02:15;;;;;;;2.45;1.23;;;9.50;99.90;;;;;;5048090;28;20034;-76
2023/11/27 05:04:41;;;;;;;5.10;1.50;;;9.50;99.90;;;;;;5030672;28;20092;-76
2023/11/27 05:07:06;;;;;;;3.78;1.38;;;9.50;99.90;;;;;;5046703;28;20018;-76
2023/11/27 05:09:33;;;;;;;3.20;1.58;;;9.50;99.90;;;;;;5046955;28;20068;-76
2023/11/27 05:11:58;;;;;;;5.25;1.80;;;9.50;99.90;;;;;;5047406;28;20014;-76
2023/11/27 05:14:24;;;;;;;4.80;1.33;;;9.50;99.90;;;;;;5047428;28;20108;-77
2023/11/27 05:16:52;;;;;;;4.18;1.25;;;9.50;99.90;;;;;;5030144;28;20044;-76
2023/11/27 05:19:18;;;;;;;3.47;1.25;;;9.50;99.90;;;;;;5030337;28;20035;-76
2023/11/27 05:21:44;;;;;;;4.88;1.25;;;9.50;99.90;;;;;;5047544;28;20017;-76
2023/11/27 05:24:10;;;;;;;3.45;1.15;;;9.50;99.90;;;;;;5046952;28;20097;-76
2023/11/27 05:26:36;;;;;;;0.95;0.70;;;9.60;99.90;;;;;;5047250;28;20270;-76
2023/11/27 05:29:01;;;;;;;0.85;0.70;;;9.60;99.90;;;;;;5046467;28;20021;-76
2023/11/27 05:31:27;;;;;;;2.83;1.33;;;9.60;99.90;;;;;;5046187;28;20036;-76
2023/11/27 05:33:53;;;;;;;1.30;0.80;;;9.60;99.90;;;;;;5046283;28;20195;-76
2023/11/27 05:36:18;;;;;;;3.03;1.00;;;9.60;99.90;;;;;;5045395;28;20222;-76
2023/11/27 05:38:44;;;;;;;1.95;1.10;;;9.60;99.90;;;;;;5047022;28;20233;-76
2023/11/27 05:41:12;;;;;;;4.03;1.27;;;9.60;99.90;;;;;;5045975;28;20029;-76
2023/11/27 05:43:37;;;;;;;5.38;1.13;;;9.60;99.90;;;;;;5029613;28;20021;-76
2023/11/27 05:46:04;;;;;;;3.42;1.50;;;9.60;99.90;;;;;;5047024;28;20049;-75
2023/11/27 05:48:29;;;;;;;2.38;1.15;;;9.60;99.90;;;;;;5046739;28;20025;-76
2023/11/27 05:50:56;;;;;;;4.65;1.30;;;9.60;99.90;;;;;;5029263;28;20198;-75
2023/11/27 05:53:21;;;;;;;4.88;1.30;;;9.60;99.90;;;;;;5029565;28;20065;-75
2023/11/27 05:55:47;;;;;;;2.88;1.15;;;9.60;99.90;;;;;;5047151;28;20071;-75
2023/11/27 05:58:13;;;;;;;4.78;1.30;;;9.60;99.90;;;;;;5045790;28;20083;-75
2023/11/27 06:00:38;;;;;;;4.50;1.38;;;9.60;99.90;;;;;;5045676;28;20177;-75
2023/11/27 06:03:04;;;;;;;2.97;1.33;;;9.60;99.90;;;;;;5046607;28;20036;-75
2023/11/27 06:05:30;;;;;;;6.57;1.35;;;9.60;99.90;;;;;;5029082;28;20032;-76
2023/11/27 06:07:55;;;;;;;4.70;1.40;;;9.60;99.90;;;;;;5045762;28;20230;-76
2023/11/27 06:10:21;;;;;;;5.03;1.27;;;9.60;99.90;;;;;;5045325;28;20056;-75
2023/11/27 06:12:47;;;;;;;7.13;1.50;;;9.60;99.90;;;;;;5046231;28;20080;-76
2023/11/27 06:15:14;;;;;;;4.78;1.80;;;9.60;99.90;;;;;;5045511;28;20041;-76
2023/11/27 06:17:43;;;;;;;5.60;1.70;;;9.60;99.90;;;;;;5028844;28;20053;-76
2023/11/27 06:20:12;;;;;;;6.18;2.00;;;9.60;99.90;;;;;;5045383;28;20290;-76
2023/11/27 06:22:38;;;;;;;4.50;1.40;;;9.60;99.90;;;;;;5045327;28;20044;-75
2023/11/27 06:25:07;;;;;;;7.55;2.25;;;9.60;99.90;;;;;;5045024;28;20045;-76
2023/11/27 06:27:32;;;;;;;7.00;1.73;;;9.60;99.90;;;;;;5029194;28;20283;-76
2023/11/27 06:29:58;;;;;;;7.13;1.70;;;9.60;99.90;;;;;;5046261;28;20027;-75
2023/11/27 06:32:24;;;;;;;5.38;1.45;;;9.60;99.90;;;;;;5045916;28;20029;-75
2023/11/27 06:34:50;;;;;;;10.07;1.58;;;9.60;99.90;;;;;;5044932;28;20036;-76
2023/11/27 06:37:16;;;;;;;4.00;2.22;;;9.60;99.90;;;;;;5028426;28;20022;-76
2023/11/27 06:39:42;;;;;;;5.57;1.50;;;9.60;99.90;;;;;;5028590;28;20294;-75
2023/11/27 06:42:11;;;;;;;9.43;1.80;;;9.60;99.90;;;;;;5028304;28;20033;-76
2023/11/27 06:44:38;;;;;;;10.52;1.85;;;9.60;99.90;;;;;;5028770;28;20033;-76
2023/11/27 06:47:04;;;;;;;13.45;1.80;;;9.60;99.90;;;;;;5028434;28;20032;-76
2023/11/27 06:49:30;;;;;;;6.80;1.65;;;9.60;99.90;;;;;;5045529;28;20050;-76
2023/11/27 06:51:56;;;;;;;5.22;1.63;;;9.60;99.90;;;;;;5044670;28;20026;-75
2023/11/27 06:54:21;;;;;;;4.53;1.48;;;9.70;99.90;;;;;;5044610;28;20352;-76
2023/11/27 06:56:47;;;;;;;4.97;1.45;;;9.60;99.90;;;;;;5044637;28;20044;-76
2023/11/27 06:59:13;;;;;;;5.32;1.60;;;9.70;99.90;;;;;;5045685;28;20029;-75
2023/11/27 07:01:39;;;;;;;7.63;2.20;;;9.60;99.90;;;;;;5044795;28;20040;-76
2023/11/27 07:04:05;;;;;;;4.82;1.75;;;9.70;99.90;;;;;;5045644;28;20084;-75
2023/11/27 07:06:31;;;;;;;7.20;1.60;;;9.70;99.90;;;;;;5028067;28;20032;-76
2023/11/27 07:08:59;;;;;;;5.80;2.10;;;9.70;99.90;;;;;;5044401;28;20039;-76
2023/11/27 07:11:25;;;;;;;6.43;1.92;;;9.70;99.90;;;;;;5044509;28;20179;-76
2023/11/27 07:13:51;;;;;;;6.65;1.80;;;9.70;99.90;;;;;;5044548;28;20017;-76
2023/11/27 07:16:17;;;;;;;4.18;1.52;;;9.70;99.90;;;;;;5045500;28;20112;-76
2023/11/27 07:18:46;;;;;;;4.63;1.70;;;9.70;99.90;;;;;;5028083;28;20088;-76
2023/11/27 07:21:12;;;;;;;10.43;1.80;;;9.70;99.90;;;;;;5044474;28;20029;-76
2023/11/27 07:23:41;;;;;;;6.57;1.98;;;9.70;99.90;;;;;;5044340;28;20029;-76
2023/11/27 07:26:07;;;;;;;4.93;1.70;;;9.70;99.90;;;;;;5027803;28;20278;-75
2023/11/27 07:28:33;;;;;;;6.30;2.00;;;9.70;99.90;;;;;;5045021;28;20056;-76
2023/11/27 07:30:59;;;;;;;7.70;1.83;;;9.70;99.90;;;;;;5044173;28;20202;-76
2023/11/27 07:33:24;;;;;;;7.07;1.70;;;9.70;99.90;;;;;;5027823;28;20028;-75
2023/11/27 07:35:50;;;;;;;7.35;2.10;;;9.80;99.90;;;;;;5027817;28;20048;-75
2023/11/27 07:38:16;;;;;;;5.80;2.17;;;9.70;99.90;;;;;;5027690;28;20053;-76
2023/11/27 07:40:42;;;;;;;8.57;1.77;;;9.80;99.90;;;;;;5044921;28;20025;-76
2023/11/27 07:43:10;;;;;;;3.92;1.60;;;9.70;99.90;;;;;;5045022;28;20261;-75
2023/11/27 07:45:37;;;;;;;11.02;2.13;;;9.70;99.90;;;;;;5043892;28;20220;-76
2023/11/27 07:48:02;;;;;;;5.65;1.95;;;9.70;99.90;;;;;;5044404;28;20025;-73
2023/11/27 07:50:29;;;;;;;6.63;1.98;;;9.70;99.90;;;;;;5043628;28;20206;-76
2023/11/27 07:52:55;;;;;;;3.88;2.20;;;9.70;99.90;;;;;;5043989;28;20021;-76
2023/11/27 07:55:21;;;;;;;4.43;1.63;;;9.70;99.90;;;;;;5043991;28;20029;-77
2023/11/27 07:57:47;;;;;;;3.13;1.42;;;9.70;99.90;;;;;;5044959;28;20101;-75
2023/11/27 08:00:14;;;;;;;2.70;1.67;;;9.60;99.90;;;;;;5046114;28;20029;-76
2023/11/27 08:02:42;;;;;;;3.45;1.23;;;9.60;99.90;;;;;;5048720;28;20052;-76
2023/11/27 08:05:08;;;;;;;2.85;1.40;;;9.60;99.90;;;;;;5048675;28;20239;-76
2023/11/27 08:07:34;;;;;;;5.55;1.35;;;9.60;99.90;;;;;;5031596;28;20040;-75
2023/11/27 08:10:01;;;;;;;3.55;1.13;;;9.50;99.90;;;;;;5047795;28;20017;-76
2023/11/27 08:12:26;;;;;;;2.10;1.00;;;9.50;99.90;;;;;;5048803;28;20093;-76
2023/11/27 08:14:52;;;;;;;2.20;1.25;;;9.50;99.90;;;;;;5048610;28;20040;-76
2023/11/27 08:17:18;;;;;;;2.33;1.10;;;9.50;99.90;;;;;;5031057;28;20088;-76
2023/11/27 08:19:44;;;;;;;2.28;1.20;;;9.50;99.90;;;;;;5047797;28;20033;-76
2023/11/27 08:22:11;;;;;;;4.25;1.85;;;9.50;99.90;;;;;;5014887;28;20278;-76
2023/11/27 08:24:36;;;;;;;5.85;3.90;;;9.50;99.90;;;;;;5014742;28;20025;-75
2023/11/27 08:27:04;;;;;;;7.10;3.70;;;9.50;99.90;;;;;;5014741;28;20092;-76
2023/11/27 08:29:32;;;;;;;8.57;4.55;;;9.60;99.90;;;;;;5048086;28;20025;-76
2023/11/27 08:31:59;;;;;;;6.10;4.13;;;9.60;99.90;;;;;;5031028;28;20021;-76
2023/11/27 08:34:26;;;;;;;8.18;4.50;;;9.60;99.90;;;;;;5030974;28;20029;-76
2023/11/27 08:36:51;;;;;;;6.22;4.65;;;9.60;99.90;;;;;;5030672;28;20029;-76
2023/11/27 08:39:17;;;;;;;5.00;2.75;;;9.50;99.90;;;;;;5047125;28;20025;-76
2023/11/27 08:41:43;;;;;;;5.60;2.92;;;9.50;99.90;;;;;;5014129;28;20017;-76
2023/11/27 08:44:09;;;;;;;4.93;2.38;;;9.50;99.90;;;;;;5030512;28;20092;-76
2023/11/27 08:46:38;;;;;;;4.15;2.30;;;9.50;99.90;;;;;;5047789;28;20029;-76
2023/11/27 08:49:04;;;;;;;5.30;2.60;;;9.50;99.90;;;;;;5046659;28;20092;-77
2023/11/27 08:51:30;;;;;;;7.28;2.95;;;9.50;99.90;;;;;;5047777;28;20053;-77
2023/11/27 08:53:56;;;;;;;4.75;1.80;;;9.50;99.90;;;;;;5046627;28;20028;-77
2023/11/27 08:56:22;;;;;;;3.75;2.05;;;9.50;99.90;;;;;;5046316;28;20100;-77
2023/11/27 08:58:47;;;;;;;3.55;1.70;;;9.40;99.90;;;;;;5047513;28;20029;-77
2023/11/27 09:01:16;;;;;;;3.70;1.80;;;9.50;99.90;;;;;;5029887;28;20025;-78
2023/11/27 09:03:45;;;;;;;4.00;1.30;;;9.40;99.90;;;;;;5030592;28;20025;-78
2023/11/27 09:06:10;;;;;;;3.85;1.50;;;9.40;99.90;;;;;;5046590;28;20048;-79
2023/11/27 09:08:39;;;;;;;3.58;1.30;;;9.40;99.90;;;;;;5047324;28;20029;-79
2023/11/27 09:11:06;;;;;;;7.22;1.83;;;9.30;99.90;;;;;;5045005;28;20297;-79
2023/11/27 09:13:32;;;;;;;5.47;1.92;;;9.30;99.90;;;;;;5046389;28;20026;-79
2023/11/27 09:15:58;;;;;;;3.58;1.30;;;9.30;99.90;;;;;;5047505;28;20175;-79
2023/11/27 09:18:24;;;;;;;3.33;1.20;;;9.20;99.90;;;;;;5047259;28;20168;-77
2023/11/27 09:20:50;;;;;;;3.50;1.50;;;9.20;99.90;;;;;;5047113;28;20179;-77
2023/11/27 09:23:16;;;;;;;3.53;1.20;;;9.20;99.90;;;;;;5046774;28;20064;-77
2023/11/27 09:25:42;;;;;;;3.38;1.02;;;9.20;99.90;;;;;;5046338;28;20029;-77
2023/11/27 09:28:08;;;;;;;3.85;1.27;;;9.20;99.90;;;;;;5046364;28;20325;-77
2023/11/27 09:30:34;;;;;;;2.58;1.17;;;9.10;99.90;;;;;;5046376;28;20025;-76
2023/11/27 09:33:01;;;;;;;3.50;0.98;;;9.00;99.90;;;;;;5046078;28;20029;-78
2023/11/27 09:35:26;;;;;;;4.53;1.20;;;9.00;99.90;;;;;;5046138;28;20025;-77
2023/11/27 09:38:02;;;;;;;4.85;1.60;;;9.00;99.90;;;;;;5029477;28;20040;-77
2023/11/27 09:40:29;;;;;;;5.35;1.25;;;9.00;99.90;;;;;;5031107;28;20092;-78
2023/11/27 09:42:57;;;;;;;7.25;1.67;;;8.90;99.90;;;;;;5029148;28;20075;-77
2023/11/27 09:45:23;;;;;;;6.22;3.42;;;8.90;99.90;;;;;;5029300;28;20052;-77
2023/11/27 09:47:49;;;;;;;5.32;1.55;;;8.90;99.90;;;;;;5029502;28;20084;-77
2023/11/27 09:50:15;;;;;;;2.22;1.08;;;8.90;99.90;;;;;;5012683;28;20103;-77
2023/11/27 09:52:41;;;;;;;11.80;6.07;;;8.90;99.90;;;;;;5046379;28;20321;-77
2023/11/27 09:55:08;;;;;;;6.25;1.92;;;8.90;99.90;;;;;;5046733;28;20049;-77
2023/11/27 09:57:34;;;;;;;4.20;1.20;;;8.90;99.90;;;;;;5045773;28;20263;-77
2023/11/27 10:00:00;;;;;;;6.95;1.75;;;8.90;99.90;;;;;;5045681;28;20044;-76
2023/11/27 10:02:26;;;;;;;3.20;1.15;;;9.00;99.90;;;;;;5045315;28;20315;-77
2023/11/27 10:04:53;;;;;;;4.43;1.40;;;9.00;99.90;;;;;;5012529;28;20069;-77
2023/11/27 10:07:21;;;;;;;3.55;1.42;;;9.00;99.90;;;;;;5029452;28;20215;-77
2023/11/27 10:09:51;;;;;;;5.07;1.10;;;9.00;99.90;;;;;;5046894;28;20021;-77
2023/11/27 10:12:28;;;;;;;4.38;1.02;;;9.00;99.90;;;;;;5029517;28;20041;-77
2023/11/27 10:14:57;;;;;;;6.20;1.30;;;9.10;99.90;;;;;;5045331;28;20044;-78
2023/11/27 10:17:24;;;;;;;4.85;1.30;;;9.10;99.90;;;;;;5046200;28;20060;-77
2023/11/27 10:19:53;;;;;;;2.15;1.10;;;9.20;99.90;;;;;;5044927;28;20025;-77
2023/11/27 10:22:21;;;;;;;3.08;1.27;;;9.30;99.90;;;;;;5012572;28;20037;-77
2023/11/27 10:24:47;;;;;;;5.45;1.30;;;9.30;99.90;;;;;;5012881;28;20109;-78
2023/11/27 10:27:13;;;;;;;3.20;1.10;;;9.30;99.90;;;;;;5028911;28;20017;-78
2023/11/27 10:29:39;;;;;;;4.55;1.25;;;9.30;99.90;;;;;;5045338;28;20032;-78
2023/11/27 10:32:05;;;;;;;8.63;3.92;;;9.30;99.90;;;;;;5045133;28;20105;-76
2023/11/27 10:34:34;;;;;;;1.50;1.05;;;9.30;99.90;;;;;;5044821;28;20261;-77
2023/11/27 10:37:02;;;;;;;4.53;1.30;;;9.30;99.90;;;;;;5045645;28;20025;-77
2023/11/27 10:39:32;;;;;;;6.10;1.20;;;9.20;99.90;;;;;;5044706;28;20072;-77
2023/11/27 10:41:58;;;;;;;6.80;1.23;;;9.20;99.90;;;;;;5028940;28;20186;-77
2023/11/27 10:44:25;;;;;;;2.65;1.13;;;9.20;99.90;;;;;;5028093;28;20322;-77
2023/11/27 10:46:51;;;;;;;11.48;1.65;;;9.20;99.90;;;;;;5044846;28;20029;-77
2023/11/27 10:49:17;;;;;;;2.55;1.05;;;9.20;99.90;;;;;;5045439;28;20045;-76
2023/11/27 10:51:44;;;;;;;3.03;2.78;;;9.20;99.90;;;;;;5044778;28;20139;-77
2023/11/27 10:54:17;;;;;;;2.60;1.10;;;9.10;99.90;;;;;;5028350;28;20033;-76
2023/11/27 10:56:47;;;;;;;1.90;0.98;;;9.10;99.90;;;;;;5044322;28;20311;-76
2023/11/27 10:59:14;;;;;;;5.95;1.20;;;9.10;99.90;;;;;;5028248;28;20029;-77
2023/11/27 11:01:43;;;;;;;3.15;1.25;;;9.10;99.90;;;;;;5028250;28;20026;-77
2023/11/27 11:04:18;;;;;;;2.97;1.33;;;9.10;99.90;;;;;;5044213;28;20036;-78
2023/11/27 11:06:45;;;;;;;1.73;0.90;;;9.10;99.90;;;;;;5045106;28;20214;-77
2023/11/27 11:09:13;;;;;;;4.00;1.05;;;9.10;99.90;;;;;;5044390;28;20053;-77
2023/11/27 11:11:49;;;;;;;2.88;0.80;;;9.10;99.90;;;;;;5044637;28;20021;-78
2023/11/27 11:14:16;;;;;;;3.72;1.30;;;9.10;99.90;;;;;;5045357;28;20037;-77
2023/11/27 11:17:01;;;;;;;2.83;1.20;;;9.20;99.90;;;;;;5044057;28;20029;-77
2023/11/27 11:19:49;;;;;;;3.65;1.33;;;9.20;99.90;;;;;;5045112;28;20275;-77
2023/11/27 11:22:58;;;;;;;2.42;0.93;;;9.10;99.90;;;;;;5043826;28;20029;-77
2023/11/27 11:25:48;;;;;;;6.80;2.50;;;9.10;99.90;;;;;;5017135;28;20076;-77
2023/11/27 11:28:31;;;;;;;4.03;1.25;;;9.00;99.90;;;;;;5044070;28;20030;-77
2023/11/27 11:31:16;;;;;;;3.63;1.20;;;9.00;99.90;;;;;;5027890;28;20033;-77
2023/11/27 11:33:43;;;;;;;5.53;1.00;;;8.90;99.90;;;;;;5027432;28;20108;-77
2023/11/27 11:36:13;;;;;;;3.97;1.58;;;8.80;99.90;;;;;;5043783;28;20033;-77
2023/11/27 11:38:44;;;;;;;4.15;1.20;;;8.80;99.90;;;;;;5044090;28;20030;-76
2023/11/27 11:41:10;;;;;;;3.20;1.58;;;8.80;99.90;;;;;;5044786;28;20051;-78
2023/11/27 11:43:42;;;;;;;3.67;1.23;;;8.80;99.90;;;;;;5044071;28;20033;-77
2023/11/27 11:46:18;;;;;;;3.08;1.15;;;8.80;99.90;;;;;;5027670;28;20029;-77
2023/11/27 11:48:49;;;;;;;1.75;1.00;;;8.80;99.90;;;;;;5027602;28;20030;-76
2023/11/27 11:51:16;;;;;;;1.55;0.70;;;8.90;99.90;;;;;;5043610;28;20029;-78
2023/11/27 11:53:43;;;;;;;1.77;0.95;;;8.80;99.90;;;;;;5043966;28;20061;-77
2023/11/27 11:56:19;;;;;;;1.83;0.80;;;8.80;99.90;;;;;;5043835;28;20036;-78
2023/11/27 11:58:58;;;;;;;2.15;0.90;;;8.70;99.90;;;;;;5027351;28;20072;-78
2023/11/27 12:01:25;;;;;;;2.92;1.10;;;8.70;99.90;;;;;;5043679;28;20099;-78
2023/11/27 12:03:51;;;;;;;3.00;1.02;;;8.80;99.90;;;;;;5010927;28;20029;-77
2023/11/27 12:06:17;;;;;;;4.18;1.20;;;8.90;99.90;;;;;;5026823;28;20160;-77
2023/11/27 12:08:45;;;;;;;3.08;0.93;;;8.90;99.90;;;;;;5010629;28;20026;-77
2023/11/27 12:11:13;;;;;;;2.10;0.90;;;9.00;99.90;;;;;;5043598;28;20059;-78
2023/11/27 12:13:43;;;;;;;3.35;1.50;;;9.00;99.90;;;;;;5027520;28;20282;-78
2023/11/27 12:16:12;;;;;;;2.70;1.13;;;9.10;99.90;;;;;;5043513;28;20033;-79
2023/11/27 12:18:49;;;;;;;2.70;1.27;;;9.10;99.90;;;;;;5027434;28;20187;-77
2023/11/27 12:21:22;;;;;;;3.55;0.90;;;9.00;99.90;;;;;;5043178;28;20235;-76
2023/11/27 12:23:51;;;;;;;2.03;1.23;;;8.90;99.90;;;;;;5011669;28;20037;-76
2023/11/27 12:26:25;;;;;;;1.40;0.87;;;8.80;99.90;;;;;;5043946;28;20056;-75
2023/11/27 12:28:54;;;;;;;5.10;1.67;;;8.80;99.90;;;;;;5044016;28;20168;-75
2023/11/27 12:31:20;;;;;;;5.88;1.52;;;8.70;99.90;;;;;;5026529;28;20029;-76
2023/11/27 12:33:52;;;;;;;5.93;1.23;;;8.70;99.90;;;;;;5026989;28;20029;-76
2023/11/27 12:36:21;;;;;;;5.15;1.65;;;8.70;99.90;;;;;;5043660;28;20033;-76
2023/11/27 12:38:52;;;;;;;2.72;1.02;;;8.70;99.90;;;;;;5044112;28;20038;-76
2023/11/27 12:41:29;;;;;;;3.97;1.23;;;8.70;99.90;;;;;;5011456;28;20033;-75
2023/11/27 12:44:16;;;;;;;2.08;0.90;;;8.60;99.90;;;;;;5027626;28;20097;-76
2023/11/27 12:46:49;;;;;;;3.28;1.30;;;8.60;99.90;;;;;;5045303;28;20152;-76
2023/11/27 12:49:21;;;;;;;4.78;1.42;;;8.70;99.90;;;;;;5046615;28;20045;-78
2023/11/27 12:51:47;;;;;;;3.97;1.02;;;8.70;99.90;;;;;;5047174;28;20025;-78
2023/11/27 12:54:18;;;;;;;6.13;2.00;;;8.60;99.90;;;;;;5047882;28;20234;-76
2023/11/27 12:57:05;;;;;;;3.15;1.33;;;8.60;99.90;;;;;;5030556;28;20076;-76